Time;durP1;ratioP1;P1;durP2;ratioP2;P2;SDS_P1;SDS_P2;PMS_P1;PMS_P2;Temp;Humidity;BMP_temperature;BMP_pressure;BME280_temperature;BME280_humidity;BME280_pressure;Samples;Min_cycle;Max_cycle;Signal;HPM_P1;HPM_P2
2022/09/21 00:01:45;;;;;;;5.20;2.40;;;;;;;6.58;100.00;101899.47;5033605;28;20447;-70
2022/09/21 00:04:12;;;;;;;5.73;2.83;;;;;;;6.62;100.00;101903.31;5032655;28;20520;-70
2022/09/21 00:06:38;;;;;;;7.43;2.97;;;;;;;6.74;100.00;101904.06;5032403;28;20459;-70
2022/09/21 00:09:08;;;;;;;5.27;2.50;;;;;;;6.65;100.00;101908.22;5033512;28;20447;-70
2022/09/21 00:11:35;;;;;;;5.93;2.90;;;;;;;6.70;100.00;101902.09;5032512;28;20876;-70
2022/09/21 00:14:06;;;;;;;6.77;2.67;;;;;;;6.80;100.00;101911.16;5033348;28;20500;-70
2022/09/21 00:16:32;;;;;;;5.00;2.27;;;;;;;6.82;100.00;101909.06;5032069;28;20865;-70
2022/09/21 00:18:59;;;;;;;5.00;2.30;;;;;;;6.80;100.00;101907.66;5033372;28;20501;-70
2022/09/21 00:21:27;;;;;;;6.37;2.97;;;;;;;6.78;100.00;101910.59;5032761;28;20486;-70
2022/09/21 00:23:53;;;;;;;6.87;2.80;;;;;;;6.70;100.00;101912.88;5033378;28;20481;-70
2022/09/21 00:26:24;;;;;;;7.17;3.23;;;;;;;6.66;100.00;101914.41;5031628;28;20452;-70
2022/09/21 00:28:54;;;;;;;7.17;2.53;;;;;;;6.67;100.00;101911.47;5033276;28;20446;-70
2022/09/21 00:31:20;;;;;;;5.70;2.77;;;;;;;6.52;100.00;101903.94;5032812;28;20589;-70
2022/09/21 00:33:47;;;;;;;5.50;2.43;;;;;;;6.35;100.00;101908.47;5033189;28;20439;-70
2022/09/21 00:36:16;;;;;;;5.10;2.40;;;;;;;6.31;100.00;101910.81;5032161;28;20486;-71
2022/09/21 00:38:43;;;;;;;6.30;3.20;;;;;;;6.25;100.00;101914.47;5032258;28;20529;-70
2022/09/21 00:41:11;;;;;;;6.33;3.13;;;;;;;6.17;100.00;101908.66;5033131;28;20467;-70
2022/09/21 00:43:45;;;;;;;6.77;2.77;;;;;;;6.17;100.00;101912.16;5031872;28;20466;-70
2022/09/21 00:46:18;;;;;;;9.13;2.60;;;;;;;6.17;100.00;101906.78;5033179;28;20455;-70
2022/09/21 00:48:45;;;;;;;8.73;2.60;;;;;;;6.21;100.00;101912.50;5032063;28;20818;-70
2022/09/21 00:51:13;;;;;;;6.60;2.97;;;;;;;6.29;100.00;101918.31;5032313;28;20475;-70
2022/09/21 00:53:40;;;;;;;4.80;2.40;;;;;;;6.27;100.00;101916.91;5033444;28;20812;-70
2022/09/21 00:56:09;;;;;;;6.70;3.43;;;;;;;6.37;100.00;101906.34;5035718;28;20603;-70
2022/09/21 00:58:42;;;;;;;6.03;2.80;;;;;;;6.40;100.00;101915.81;5035585;28;20964;-70
2022/09/21 01:01:11;;;;;;;7.20;3.20;;;;;;;6.34;100.00;101911.41;5035992;28;20490;-70
2022/09/21 01:03:39;;;;;;;5.97;2.50;;;;;;;6.31;100.00;101916.19;5021004;28;20455;-70
2022/09/21 01:06:06;;;;;;;5.50;2.63;;;;;;;6.29;100.00;101915.63;5036879;28;20435;-71
2022/09/21 01:08:33;;;;;;;8.87;3.43;;;;;;;6.34;100.00;101922.16;5036175;28;20463;-70
2022/09/21 01:11:26;;;;;;;6.33;2.90;;;;;;;6.39;100.00;101916.88;5036380;28;21002;-70
2022/09/21 01:14:14;;;;;;;7.50;3.37;;;;;;;6.39;100.00;101915.00;5035664;28;20467;-70
2022/09/21 01:16:48;;;;;;;6.90;2.83;;;;;;;6.35;100.00;101913.03;5036654;28;20474;-70
2022/09/21 01:19:33;;;;;;;8.03;2.77;;;;;;;6.32;100.00;101920.50;5035573;28;20493;-70
2022/09/21 01:22:10;;;;;;;7.20;3.13;;;;;;;6.44;100.00;101919.66;5036312;28;20525;-70
2022/09/21 01:24:51;;;;;;;7.70;3.50;;;;;;;6.25;100.00;101921.72;5021155;28;20462;-70
2022/09/21 01:27:40;;;;;;;5.47;2.50;;;;;;;6.19;100.00;101930.72;5036126;28;20427;-70
2022/09/21 01:30:12;;;;;;;7.57;3.30;;;;;;;6.09;100.00;101925.97;5035955;28;20853;-70
2022/09/21 01:32:42;;;;;;;8.80;3.13;;;;;;;6.22;100.00;101927.56;5035319;28;20455;-70
2022/09/21 01:35:12;;;;;;;6.90;3.13;;;;;;;5.97;100.00;101930.53;5035402;28;20855;-69
2022/09/21 01:37:42;;;;;;;6.70;3.00;;;;;;;5.86;100.00;101926.00;5036505;28;20424;-70
2022/09/21 01:40:15;;;;;;;6.77;3.07;;;;;;;6.03;100.00;101935.81;5035683;28;20501;-70
2022/09/21 01:42:44;;;;;;;5.17;2.50;;;;;;;5.99;100.00;101936.53;5036346;28;20517;-70
2022/09/21 01:45:17;;;;;;;8.27;3.33;;;;;;;5.95;100.00;101929.97;5035055;28;20466;-70
2022/09/21 01:47:48;;;;;;;5.87;2.60;;;;;;;5.95;100.00;101930.78;5035865;28;20908;-70
2022/09/21 01:50:17;;;;;;;7.60;3.13;;;;;;;6.03;100.00;101930.44;5034809;28;20536;-70
2022/09/21 01:52:49;;;;;;;8.97;2.90;;;;;;;6.06;100.00;101934.50;5036031;28;20458;-70
2022/09/21 01:55:22;;;;;;;6.50;2.30;;;;;;;6.07;100.00;101928.09;5034961;28;20857;-70
2022/09/21 01:57:55;;;;;;;6.97;3.23;;;;;;;6.14;100.00;101934.13;5034959;28;20459;-70
2022/09/21 02:00:24;;;;;;;6.47;2.90;;;;;;;6.04;100.00;101933.94;5034999;28;20483;-69
2022/09/21 02:02:54;;;;;;;7.77;2.83;;;;;;;5.96;100.00;101931.59;5035816;28;20443;-70
2022/09/21 02:05:23;;;;;;;7.90;3.60;;;;;;;6.06;100.00;101929.13;5034241;28;20830;-70
2022/09/21 02:07:52;;;;;;;6.10;2.83;;;;;;;6.16;100.00;101933.91;5034354;28;20471;-70
2022/09/21 02:10:25;;;;;;;7.60;3.17;;;;;;;6.01;100.00;101939.78;5035621;28;20459;-70
2022/09/21 02:12:59;;;;;;;6.20;3.00;;;;;;;6.12;100.00;101930.88;5034989;28;20467;-70
2022/09/21 02:15:37;;;;;;;7.60;3.00;;;;;;;5.99;100.00;101925.78;5035622;28;20475;-69
2022/09/21 02:18:08;;;;;;;10.30;3.23;;;;;;;5.95;100.00;101938.88;5034662;28;20542;-70
2022/09/21 02:20:42;;;;;;;5.10;2.50;;;;;;;5.90;100.00;101938.72;5036313;28;20455;-70
2022/09/21 02:23:15;;;;;;;5.90;2.70;;;;;;;5.87;100.00;101939.19;5035472;28;20852;-70
2022/09/21 02:25:48;;;;;;;7.70;3.27;;;;;;;5.78;100.00;101941.41;5034436;28;20525;-70
2022/09/21 02:28:26;;;;;;;5.60;2.50;;;;;;;5.73;100.00;101943.19;5033983;28;20813;-70
2022/09/21 02:31:01;;;;;;;6.70;2.70;;;;;;;5.78;100.00;101936.03;5034739;28;20490;-70
2022/09/21 02:33:32;;;;;;;10.67;3.17;;;;;;;5.66;100.00;101940.59;5034358;28;20502;-70
2022/09/21 02:36:04;;;;;;;4.77;1.83;;;;;;;5.60;100.00;101938.88;5035218;28;20955;-72
2022/09/21 02:38:36;;;;;;;5.53;2.27;;;;;;;5.68;100.00;101949.28;5033984;28;20538;-71
2022/09/21 02:41:08;;;;;;;4.90;2.33;;;;;;;5.67;100.00;101947.63;5034812;28;20448;-70
2022/09/21 02:43:39;;;;;;;5.83;3.00;;;;;;;5.76;100.00;101950.78;5034492;28;20513;-69
2022/09/21 02:46:11;;;;;;;6.93;3.20;;;;;;;5.75;100.00;101958.00;5034898;28;20432;-68
2022/09/21 02:48:44;;;;;;;4.87;2.20;;;;;;;5.77;100.00;101955.09;5033532;28;20451;-69
2022/09/21 02:51:15;;;;;;;6.87;2.70;;;;;;;5.76;100.00;101948.91;5034901;28;20467;-69
2022/09/21 02:53:43;;;;;;;5.23;2.57;;;;;;;5.68;100.00;101951.94;5034079;28;20876;-69
2022/09/21 02:56:11;;;;;;;10.13;3.57;;;;;;;5.81;100.00;101957.09;5034448;28;21073;-69
2022/09/21 02:58:43;;;;;;;6.27;2.93;;;;;;;5.68;100.00;101951.13;5033005;28;21034;-69
2022/09/21 03:01:13;;;;;;;5.93;2.40;;;;;;;5.73;100.00;101956.63;5033030;28;20475;-69
2022/09/21 03:03:39;;;;;;;5.80;2.70;;;;;;;5.69;100.00;101952.78;5034401;28;20463;-69
2022/09/21 03:06:07;;;;;;;4.90;2.20;;;;;;;5.76;100.00;101964.22;5034678;28;20439;-68
2022/09/21 03:08:33;;;;;;;7.60;2.73;;;;;;;5.65;100.00;101960.47;5033464;28;20463;-69
2022/09/21 03:10:59;;;;;;;5.90;2.60;;;;;;;5.75;100.00;101952.63;5033405;28;20483;-69
2022/09/21 03:13:26;;;;;;;4.70;2.40;;;;;;;5.72;100.00;101958.50;5034497;28;20450;-69
2022/09/21 03:15:59;;;;;;;5.70;2.80;;;;;;;5.72;100.00;101958.50;5033194;28;20487;-69
2022/09/21 03:18:27;;;;;;;4.60;2.00;;;;;;;5.53;100.00;101962.34;5033854;28;20427;-68
2022/09/21 03:20:54;;;;;;;6.97;2.97;;;;;;;5.46;100.00;101965.16;5033188;28;20893;-69
2022/09/21 03:23:20;;;;;;;4.93;2.50;;;;;;;5.41;100.00;101967.72;5034272;28;20811;-69
2022/09/21 03:25:47;;;;;;;5.87;2.30;;;;;;;5.51;100.00;101961.75;5033628;28;20537;-69
2022/09/21 03:28:15;;;;;;;4.93;2.07;;;;;;;5.58;100.00;101962.47;5033573;28;20447;-69
2022/09/21 03:30:42;;;;;;;6.20;2.80;;;;;;;5.68;100.00;101972.66;5034103;28;20999;-69
2022/09/21 03:33:09;;;;;;;5.00;2.37;;;;;;;5.61;100.00;101961.19;5034109;28;20447;-69
2022/09/21 03:35:36;;;;;;;5.33;2.40;;;;;;;5.59;100.00;101968.66;5033691;28;20551;-69
2022/09/21 03:38:03;;;;;;;6.43;2.73;;;;;;;5.59;100.00;101968.66;5033081;28;20960;-69
2022/09/21 03:40:30;;;;;;;5.50;2.20;;;;;;;5.58;100.00;101970.53;5033805;28;20467;-69
2022/09/21 03:42:56;;;;;;;5.33;2.10;;;;;;;5.45;100.00;101973.47;5031520;28;20487;-69
2022/09/21 03:45:23;;;;;;;7.90;3.00;;;;;;;5.55;100.00;101974.50;5033601;28;20451;-69
2022/09/21 03:47:50;;;;;;;7.00;2.80;;;;;;;5.64;100.00;101983.03;5033659;28;20438;-69
2022/09/21 03:50:16;;;;;;;4.97;2.20;;;;;;;5.57;100.00;101969.69;5033651;28;20467;-69
2022/09/21 03:52:44;;;;;;;6.13;2.10;;;;;;;5.42;100.00;101979.28;5023308;28;20948;-69
2022/09/21 03:55:11;;;;;;;5.40;2.47;;;;;;;5.35;100.00;101973.19;5013662;28;20900;-71
2022/09/21 03:57:38;;;;;;;11.20;2.43;;;;;;;5.22;100.00;101968.84;5027945;28;20463;-70
2022/09/21 04:00:07;;;;;;;5.80;2.70;;;;;;;5.23;100.00;101971.31;5033587;28;20459;-71
2022/09/21 04:02:34;;;;;;;10.43;2.53;;;;;;;5.11;100.00;101973.16;5031835;28;21033;-71
2022/09/21 04:05:01;;;;;;;5.73;2.27;;;;;;;5.07;100.00;101980.84;5033598;28;20450;-70
2022/09/21 04:07:31;;;;;;;4.93;1.90;;;;;;;5.15;100.00;101968.97;5032795;28;21058;-71
2022/09/21 04:09:58;;;;;;;7.50;3.10;;;;;;;5.12;100.00;101969.41;5032583;28;20884;-71
2022/09/21 04:12:25;;;;;;;5.10;2.87;;;;;;;5.14;100.00;101977.25;5033087;28;20951;-71
2022/09/21 04:14:51;;;;;;;6.23;2.50;;;;;;;5.24;100.00;101972.94;5032679;28;20439;-71
2022/09/21 04:17:18;;;;;;;4.87;1.90;;;;;;;5.35;100.00;101983.94;5033369;28;20479;-71
2022/09/21 04:19:44;;;;;;;4.33;1.50;;;;;;;5.36;100.00;101990.94;5033345;28;20517;-71
2022/09/21 04:22:12;;;;;;;4.40;2.30;;;;;;;5.33;100.00;101992.22;5030618;28;20549;-71
2022/09/21 04:24:39;;;;;;;5.70;2.43;;;;;;;5.31;100.00;101989.78;5032518;28;20447;-70
2022/09/21 04:27:07;;;;;;;4.90;2.47;;;;;;;5.37;100.00;101989.91;5033382;28;20439;-71
2022/09/21 04:29:34;;;;;;;6.20;2.37;;;;;;;5.40;100.00;101987.59;5031282;28;21014;-71
2022/09/21 04:32:00;;;;;;;6.50;2.87;;;;;;;5.48;100.00;101986.41;5031349;28;20966;-70
2022/09/21 04:34:27;;;;;;;5.27;2.13;;;;;;;5.50;100.00;101987.81;5032879;28;20831;-70
2022/09/21 04:36:54;;;;;;;4.23;2.07;;;;;;;5.42;100.00;101987.34;5032587;28;20588;-70
2022/09/21 04:39:20;;;;;;;5.33;2.40;;;;;;;5.30;100.00;101987.31;5033166;28;20513;-70
2022/09/21 04:41:47;;;;;;;7.30;2.87;;;;;;;5.27;100.00;101985.94;5031108;28;20459;-70
2022/09/21 04:44:15;;;;;;;9.20;2.77;;;;;;;5.21;100.00;101984.16;5031057;28;20546;-70
2022/09/21 04:46:41;;;;;;;6.13;2.87;;;;;;;5.11;100.00;101981.22;5032772;28;20959;-70
2022/09/21 04:49:09;;;;;;;6.30;2.77;;;;;;;5.13;100.00;101981.78;5032546;28;20566;-70
2022/09/21 04:51:36;;;;;;;8.53;2.67;;;;;;;5.11;100.00;101991.13;5033059;28;20463;-70
2022/09/21 04:54:02;;;;;;;6.50;2.83;;;;;;;5.17;100.00;101984.84;5031178;28;20518;-70
2022/09/21 04:56:29;;;;;;;6.00;2.53;;;;;;;5.09;100.00;101986.00;5031860;28;20904;-70
2022/09/21 04:58:56;;;;;;;6.97;2.47;;;;;;;5.00;100.00;101990.03;5033005;28;20446;-70
2022/09/21 05:01:23;;;;;;;5.10;2.23;;;;;;;4.94;100.00;101991.78;5032259;28;20487;-70
2022/09/21 05:03:50;;;;;;;4.93;1.90;;;;;;;5.04;100.00;101997.41;5031184;28;20482;-70
2022/09/21 05:06:16;;;;;;;5.43;1.80;;;;;;;5.05;100.00;101999.06;5033002;28;20439;-70
2022/09/21 05:11:41;;;;;;;4.60;1.80;;;;;;;5.29;100.00;101999.94;4952077;28;20466;-70
2022/09/21 05:14:09;;;;;;;4.97;2.43;;;;;;;5.12;100.00;102009.69;4950425;28;20466;-71
2022/09/21 05:16:36;;;;;;;5.03;2.60;;;;;;;5.10;100.00;102009.13;4989253;28;21034;-70
2022/09/21 05:19:03;;;;;;;5.37;2.70;;;;;;;5.16;100.00;102018.94;5031059;28;20463;-70
2022/09/21 05:21:30;;;;;;;8.07;2.60;;;;;;;5.19;100.00;102018.50;5032665;28;20467;-71
2022/09/21 05:23:57;;;;;;;5.10;2.47;;;;;;;5.29;100.00;102018.75;5031879;28;20988;-70
2022/09/21 05:26:24;;;;;;;5.80;3.03;;;;;;;5.37;100.00;102022.16;5031842;28;20463;-70
2022/09/21 05:28:51;;;;;;;5.37;2.77;;;;;;;5.47;100.00;102023.22;5032652;28;20446;-70
2022/09/21 05:31:31;;;;;;;6.37;2.90;;;;;;;5.36;100.00;102033.94;5029027;28;20491;-71
2022/09/21 05:34:06;;;;;;;7.60;4.20;;;;;;;5.47;100.00;102033.16;5030333;28;20488;-71
2022/09/21 05:36:42;;;;;;;8.83;4.17;;;;;;;5.46;100.00;102021.59;5031584;28;20478;-69
2022/09/21 05:39:10;;;;;;;8.60;3.80;;;;;;;5.60;100.00;102034.81;5032728;28;20431;-69
2022/09/21 05:41:37;;;;;;;8.07;4.20;;;;;;;5.58;100.00;102032.38;5035118;28;20455;-70
2022/09/21 05:44:04;;;;;;;8.27;3.77;;;;;;;5.48;100.00;102032.09;5036159;28;20455;-73
2022/09/21 05:46:37;;;;;;;6.47;3.87;;;;;;;5.59;100.00;102028.63;5035001;28;20455;-69
2022/09/21 05:49:14;;;;;;;7.73;4.00;;;;;;;5.70;100.00;102040.41;5033506;28;20517;-70
2022/09/21 05:51:52;;;;;;;7.00;3.60;;;;;;;5.62;100.00;102035.38;5032006;28;20873;-70
2022/09/21 05:54:25;;;;;;;7.63;3.67;;;;;;;5.69;100.00;102036.09;5033369;28;20462;-70
2022/09/21 05:56:58;;;;;;;6.83;3.40;;;;;;;5.79;100.00;102039.03;5034511;28;20481;-70
2022/09/21 05:59:43;;;;;;;6.60;3.80;;;;;;;5.94;100.00;102041.31;5034344;28;20455;-70
2022/09/21 06:02:23;;;;;;;7.40;4.33;;;;;;;5.98;100.00;102040.59;5035648;28;20489;-70
2022/09/21 06:04:53;;;;;;;7.50;4.70;;;;;;;6.02;100.00;102044.47;5035814;28;20483;-70
2022/09/21 06:07:20;;;;;;;12.17;5.53;;;;;;;6.15;100.00;102037.19;5035878;28;20424;-70
2022/09/21 06:09:46;;;;;;;7.50;3.90;;;;;;;6.38;100.00;102039.03;5035602;28;20474;-70
2022/09/21 06:12:13;;;;;;;8.57;4.10;;;;;;;6.50;100.00;102045.19;5035395;28;20952;-71
2022/09/21 06:14:39;;;;;;;12.50;4.80;;;;;;;6.62;100.00;102047.88;5035611;28;20470;-70
2022/09/21 06:17:06;;;;;;;13.60;3.80;;;;;;;6.84;100.00;102046.16;5035527;28;20536;-71
2022/09/21 06:19:32;;;;;;;6.23;3.07;;;;;;;7.02;100.00;102047.84;5035494;28;20497;-70
2022/09/21 06:22:00;;;;;;;5.43;2.40;;;;;;;7.19;100.00;102043.31;5035191;28;20509;-70
2022/09/21 06:24:26;;;;;;;7.77;4.00;;;;;;;7.33;100.00;102050.03;5035447;28;20447;-68
2022/09/21 06:26:53;;;;;;;6.40;3.13;;;;;;;7.52;100.00;102052.50;5035465;28;20446;-69
2022/09/21 06:29:22;;;;;;;8.17;3.47;;;;;;;7.65;100.00;102057.56;5035123;28;20455;-69
2022/09/21 06:31:49;;;;;;;6.03;2.57;;;;;;;7.78;100.00;102059.13;5035368;28;20446;-69
2022/09/21 06:34:15;;;;;;;7.00;3.13;;;;;;;7.92;100.00;102057.72;5034955;28;20940;-69
2022/09/21 06:36:41;;;;;;;7.97;3.90;;;;;;;8.04;100.00;102060.34;5035155;28;20537;-69
2022/09/21 06:39:09;;;;;;;8.00;4.10;;;;;;;8.12;100.00;102062.63;5034855;28;21010;-69
2022/09/21 06:41:36;;;;;;;7.13;3.73;;;;;;;8.21;100.00;102065.72;5035041;28;20466;-69
2022/09/21 06:44:02;;;;;;;6.20;3.23;;;;;;;8.32;100.00;102062.06;5035109;28;20439;-70
2022/09/21 06:46:29;;;;;;;7.73;3.87;;;;;;;8.43;100.00;102071.16;5034735;28;20944;-69
2022/09/21 06:48:55;;;;;;;8.60;3.53;;;;;;;8.51;100.00;102070.75;5034701;28;20979;-70
2022/09/21 06:51:22;;;;;;;5.97;2.20;;;;;;;8.57;100.00;102065.13;5034842;28;20474;-70
2022/09/21 06:53:49;;;;;;;5.17;2.40;;;;;;;8.62;100.00;102066.28;5034932;28;20481;-70
2022/09/21 06:56:17;;;;;;;6.73;3.07;;;;;;;8.76;100.00;102065.63;5034691;28;20497;-70
2022/09/21 06:58:43;;;;;;;5.37;2.70;;;;;;;8.80;100.00;102072.16;5034499;28;21002;-70
2022/09/21 07:01:11;;;;;;;4.40;1.87;;;;;;;8.83;100.00;102068.97;5034729;28;20471;-70
2022/09/21 07:03:39;;;;;;;5.63;2.30;;;;;;;8.97;100.00;102069.41;5034722;28;20457;-69
2022/09/21 07:06:07;;;;;;;5.10;2.00;;;;;;;9.10;100.00;102079.00;5034628;28;20454;-70
2022/09/21 07:08:34;;;;;;;6.70;2.50;;;;;;;9.18;100.00;102073.13;5034711;28;20815;-69
2022/09/21 07:11:01;;;;;;;6.43;2.47;;;;;;;9.28;100.00;102081.34;5034533;28;20509;-68
2022/09/21 07:13:29;;;;;;;5.43;2.50;;;;;;;9.36;100.00;102088.19;5034556;28;20443;-68
2022/09/21 07:15:56;;;;;;;5.97;3.00;;;;;;;9.38;100.00;102088.75;5034457;28;20490;-68
2022/09/21 07:18:22;;;;;;;5.90;2.23;;;;;;;9.49;100.00;102086.97;5034365;28;20479;-68
2022/09/21 07:20:49;;;;;;;5.20;2.37;;;;;;;9.52;100.00;102097.28;5034319;28;20525;-68
2022/09/21 07:23:17;;;;;;;4.47;2.13;;;;;;;9.63;100.00;102092.75;5034297;28;20466;-69
2022/09/21 07:25:44;;;;;;;4.60;2.00;;;;;;;9.72;100.00;102089.31;5034271;28;20455;-69
2022/09/21 07:28:12;;;;;;;4.87;2.10;;;;;;;9.76;100.00;102090.44;5034240;28;20497;-69
2022/09/21 07:30:41;;;;;;;10.70;3.00;;;;;;;9.86;100.00;102093.22;5033694;28;20918;-69
2022/09/21 07:33:08;;;;;;;7.80;3.13;;;;;;;9.92;100.00;102093.28;5034274;28;20447;-69
2022/09/21 07:35:35;;;;;;;6.47;2.67;;;;;;;9.89;100.00;102091.91;5034066;28;20447;-69
2022/09/21 07:38:03;;;;;;;6.00;2.80;;;;;;;9.96;100.00;102102.50;5033739;28;20543;-69
2022/09/21 07:40:30;;;;;;;7.70;2.90;;;;;;;9.89;100.00;102102.72;5033939;28;20459;-69
2022/09/21 07:42:57;;;;;;;5.70;2.83;;;;;;;9.97;100.00;102098.72;5033862;28;20443;-69
2022/09/21 07:45:24;;;;;;;7.30;2.80;;;;;;;10.06;100.00;102102.59;5033969;28;20792;-69
2022/09/21 07:47:53;;;;;;;8.80;2.83;;;;;;;10.09;100.00;102096.63;5034014;28;20542;-71
2022/09/21 07:50:19;;;;;;;5.70;2.57;;;;;;;10.17;100.00;102093.44;5033481;28;20838;-69
2022/09/21 07:52:46;;;;;;;6.40;2.87;;;;;;;10.19;100.00;102095.91;5033856;28;20451;-70
2022/09/21 07:55:13;;;;;;;6.13;2.83;;;;;;;10.28;100.00;102094.38;5033478;28;20447;-70
2022/09/21 08:00:23;;;;;;;8.70;2.93;;;;;;;10.53;100.00;102099.09;5033380;28;20534;-70
2022/09/21 08:02:51;;;;;;;6.30;2.80;;;;;;;10.59;100.00;102100.78;5033258;28;20446;-70
2022/09/21 08:05:18;;;;;;;6.30;3.50;;;;;;;10.73;100.00;102106.53;5033623;28;20439;-69
2022/09/21 08:07:44;;;;;;;7.90;3.30;;;;;;;10.83;100.00;102107.38;5033566;28;20435;-70
2022/09/21 08:10:11;;;;;;;5.17;2.37;;;;;;;10.91;100.00;102110.66;5033194;28;20988;-70
2022/09/21 08:12:38;;;;;;;5.17;2.40;;;;;;;10.96;100.00;102097.13;5033220;28;20944;-70
2022/09/21 08:15:06;;;;;;;6.53;2.70;;;;;;;10.99;100.00;102102.03;5033133;28;20450;-70
2022/09/21 08:17:33;;;;;;;7.80;3.10;;;;;;;11.00;100.00;102101.75;5033375;28;20490;-70
2022/09/21 08:20:01;;;;;;;5.97;2.80;;;;;;;11.07;100.00;102110.44;5032998;28;20971;-69
2022/09/21 08:22:27;;;;;;;5.20;2.77;;;;;;;11.08;100.00;102105.84;5033341;28;20538;-70
2022/09/21 08:24:54;;;;;;;8.03;3.00;;;;;;;11.15;100.00;102102.84;5033331;28;20450;-70
2022/09/21 08:27:21;;;;;;;6.20;3.00;;;;;;;11.18;100.00;102103.16;5033343;28;20447;-70
2022/09/21 08:29:47;;;;;;;6.60;2.87;;;;;;;11.25;100.00;102108.34;5032995;28;20852;-70
2022/09/21 08:32:14;;;;;;;6.53;2.80;;;;;;;11.29;100.00;102109.44;5033321;28;20427;-70
2022/09/21 08:34:40;;;;;;;4.83;2.10;;;;;;;11.34;100.00;102110.25;5032939;28;20872;-70
2022/09/21 08:37:08;;;;;;;5.90;2.80;;;;;;;11.43;100.00;102109.72;5033146;28;20490;-70
2022/09/21 08:39:36;;;;;;;6.17;3.20;;;;;;;11.52;100.00;102097.25;5032801;28;20995;-70
2022/09/21 08:42:22;;;;;;;6.00;3.10;;;;;;;11.71;100.00;102111.09;5033137;28;20505;-70
2022/09/21 08:44:53;;;;;;;6.60;3.17;;;;;;;11.88;100.00;102100.00;5033197;28;20432;-70
2022/09/21 08:47:36;;;;;;;8.03;2.80;;;;;;;11.98;100.00;102103.50;5032858;28;20427;-70
2022/09/21 08:50:05;;;;;;;6.47;2.60;;;;;;;12.16;100.00;102095.91;5033067;28;20467;-70
2022/09/21 08:52:33;;;;;;;4.60;2.30;;;;;;;12.41;100.00;102111.34;5033068;28;20443;-70
2022/09/21 08:55:02;;;;;;;6.40;2.30;;;;;;;12.60;100.00;102110.44;5032658;28;20824;-70
2022/09/21 08:57:30;;;;;;;6.33;2.70;;;;;;;12.69;100.00;102110.69;5032620;28;20991;-70
2022/09/21 08:59:59;;;;;;;6.10;2.40;;;;;;;12.88;100.00;102109.00;5032994;28;20474;-70
2022/09/21 09:02:41;;;;;;;5.23;2.20;;;;;;;12.95;100.00;102107.88;5032727;28;20866;-70
2022/09/21 09:05:23;;;;;;;5.90;1.90;;;;;;;13.05;100.00;102113.25;5033052;28;20845;-70
2022/09/21 09:08:06;;;;;;;5.17;1.57;;;;;;;13.10;100.00;102113.22;5032933;28;20435;-70
2022/09/21 09:10:37;;;;;;;4.23;1.57;;;;;;;13.22;100.00;102118.34;5032853;28;20471;-70
2022/09/21 09:13:18;;;;;;;4.57;1.70;;;;;;;13.27;100.00;102116.44;5032588;28;20463;-70
2022/09/21 09:15:55;;;;;;;5.17;1.93;;;;;;;13.36;100.00;102114.75;5034847;28;20427;-70
2022/09/21 09:18:29;;;;;;;3.47;0.80;;;;;;;13.49;100.00;102112.47;5036656;28;20463;-70
2022/09/21 09:20:59;;;;;;;4.00;1.40;;;;;;;13.57;100.00;102115.41;5036587;28;20470;-70
2022/09/21 09:23:32;;;;;;;4.53;1.43;;;;;;;13.67;100.00;102119.97;5036328;28;20439;-70
2022/09/21 09:26:04;;;;;;;4.37;1.27;;;;;;;13.76;100.00;102112.00;5036646;28;20427;-70
2022/09/21 09:28:35;;;;;;;6.50;1.27;;;;;;;13.84;100.00;102108.69;5036224;28;20419;-70
2022/09/21 09:31:10;;;;;;;4.53;1.27;;;;;;;13.86;100.00;102111.94;5036084;28;20525;-70
2022/09/21 09:33:48;;;;;;;5.17;1.27;;;;;;;13.99;100.00;102113.16;5036456;28;20431;-70
2022/09/21 09:36:14;;;;;;;4.07;1.20;;;;;;;14.11;100.00;102113.59;5036411;28;20467;-70
2022/09/21 09:38:49;;;;;;;4.13;0.97;;;;;;;14.18;98.51;102116.81;5036272;28;20482;-70
2022/09/21 09:41:36;;;;;;;3.50;0.70;;;;;;;14.32;97.86;102122.41;5036335;28;20465;-70
2022/09/21 09:44:18;;;;;;;3.13;0.87;;;;;;;14.42;96.46;102118.75;5036003;28;20958;-70
2022/09/21 09:46:57;;;;;;;4.47;0.90;;;;;;;14.61;95.43;102122.41;5036196;28;20431;-70
2022/09/21 09:49:33;;;;;;;4.90;1.10;;;;;;;14.85;94.45;102115.00;5036069;28;20423;-70
2022/09/21 09:51:59;;;;;;;3.30;0.80;;;;;;;15.06;92.22;102121.03;5036144;28;20423;-70
2022/09/21 09:54:32;;;;;;;3.00;0.60;;;;;;;15.16;90.58;102125.53;5036076;28;20493;-69
2022/09/21 09:57:02;;;;;;;19.73;0.90;;;;;;;15.11;91.23;102114.69;5035715;28;20904;-70
2022/09/21 09:59:35;;;;;;;2.90;0.63;;;;;;;15.06;92.66;102122.94;5035830;28;20482;-70
2022/09/21 10:02:04;;;;;;;3.20;0.60;;;;;;;14.99;91.34;102122.47;5035932;28;20493;-70
2022/09/21 10:04:33;;;;;;;2.80;0.50;;;;;;;14.99;91.88;102117.03;5035540;28;20802;-69
2022/09/21 10:06:59;;;;;;;3.00;0.50;;;;;;;15.00;88.78;102116.72;5035439;28;20490;-70
2022/09/21 10:09:29;;;;;;;3.00;0.50;;;;;;;15.19;87.78;102111.28;5035372;28;20872;-70
2022/09/21 10:11:59;;;;;;;2.90;0.43;;;;;;;15.41;84.96;102110.72;5035668;28;20517;-70
2022/09/21 10:14:29;;;;;;;2.90;0.53;;;;;;;15.63;83.26;102112.81;5035612;28;20493;-70
2022/09/21 10:16:58;;;;;;;3.23;0.70;;;;;;;15.73;80.37;102112.69;5035502;28;20447;-70
2022/09/21 10:19:26;;;;;;;2.80;0.50;;;;;;;15.87;80.52;102110.81;5035446;28;20529;-70
2022/09/21 10:21:57;;;;;;;3.43;0.77;;;;;;;15.92;79.58;102114.56;5035449;28;20454;-70
2022/09/21 10:24:26;;;;;;;3.03;0.67;;;;;;;15.86;80.52;102124.78;5035524;28;20424;-70
2022/09/21 10:26:55;;;;;;;3.00;0.57;;;;;;;15.78;81.20;102112.59;5035121;28;20443;-70
2022/09/21 10:29:32;;;;;;;3.20;0.80;;;;;;;15.77;80.40;102121.09;5035133;28;20473;-70
2022/09/21 10:32:00;;;;;;;2.80;0.50;;;;;;;15.66;80.10;102117.69;5035067;28;20904;-70
2022/09/21 10:34:29;;;;;;;4.00;0.80;;;;;;;15.55;81.66;102116.22;5035287;28;20443;-69
2022/09/21 10:36:56;;;;;;;2.83;0.60;;;;;;;15.49;81.44;102114.66;5035195;28;20450;-70
2022/09/21 10:39:26;;;;;;;3.00;0.60;;;;;;;15.50;82.08;102116.31;5034764;28;20537;-70
2022/09/21 10:42:04;;;;;;;3.20;0.80;;;;;;;15.64;83.29;102101.63;5035185;28;20447;-70
2022/09/21 10:44:39;;;;;;;2.97;0.70;;;;;;;15.96;83.73;102101.91;5035208;28;20434;-70
2022/09/21 10:47:17;;;;;;;3.00;0.60;;;;;;;16.32;80.31;102100.16;5035087;28;20455;-70
2022/09/21 10:49:46;;;;;;;2.80;0.40;;;;;;;16.55;78.12;102103.00;5034892;28;20467;-70
2022/09/21 10:52:13;;;;;;;3.57;0.70;;;;;;;16.79;78.22;102098.16;5035015;28;20554;-70
2022/09/21 10:54:42;;;;;;;3.20;0.63;;;;;;;16.61;72.89;102099.06;5034991;28;20492;-70
2022/09/21 10:57:16;;;;;;;2.80;0.50;;;;;;;16.53;74.33;102099.78;5034994;28;20530;-70
2022/09/21 10:59:43;;;;;;;3.03;0.80;;;;;;;16.38;74.86;102104.44;5034738;28;20490;-70
2022/09/21 11:02:28;;;;;;;3.00;0.60;;;;;;;16.21;72.49;102096.00;5034455;28;20940;-70
2022/09/21 11:05:01;;;;;;;3.93;0.73;;;;;;;16.10;75.74;102097.28;5034392;28;20799;-70
2022/09/21 11:07:33;;;;;;;2.77;0.60;;;;;;;16.13;76.70;102088.50;5034340;28;20959;-70
2022/09/21 11:10:07;;;;;;;3.20;0.70;;;;;;;16.24;77.76;102089.91;5034566;28;20478;-70
2022/09/21 11:12:49;;;;;;;3.20;0.73;;;;;;;16.31;78.14;102084.88;5034634;28;20431;-70
2022/09/21 11:15:23;;;;;;;2.90;0.50;;;;;;;16.44;78.20;102085.19;5034620;28;20433;-70
2022/09/21 11:17:54;;;;;;;3.73;1.07;;;;;;;16.62;77.30;102078.78;5034413;28;20467;-70
2022/09/21 11:20:27;;;;;;;3.37;0.77;;;;;;;16.77;75.98;102083.97;5034382;28;20462;-70
2022/09/21 11:23:03;;;;;;;4.93;0.57;;;;;;;17.23;76.81;102090.38;5034056;28;20969;-70
2022/09/21 11:25:37;;;;;;;3.07;0.50;;;;;;;17.16;76.48;102088.03;5034354;28;20492;-70
2022/09/21 11:28:13;;;;;;;5.27;0.70;;;;;;;16.97;78.22;102087.41;5034252;28;20477;-70
2022/09/21 11:30:53;;;;;;;2.90;0.70;;;;;;;16.81;80.72;102095.13;5033968;28;20521;-70
2022/09/21 11:33:37;;;;;;;2.90;0.50;;;;;;;16.70;82.58;102097.22;5034238;28;20517;-70
2022/09/21 11:36:11;;;;;;;2.70;0.43;;;;;;;16.64;83.21;102085.59;5033853;28;20904;-70
2022/09/21 11:38:49;;;;;;;3.77;0.60;;;;;;;16.60;81.16;102089.22;5033065;28;20470;-70
2022/09/21 11:41:33;;;;;;;3.30;0.90;;;;;;;16.58;79.34;102085.97;5034009;28;20901;-70
2022/09/21 11:44:15;;;;;;;3.20;0.70;;;;;;;16.62;76.46;102084.25;5034138;28;20466;-70